sensor_id;sensor_type;location;lat;lon;timestamp;pressure;altitude;pressure_sealevel;temperature;humidity
43503;BME280;29098;48.184;16.298;2022-07-29T00:02:12;99223.72;;;19.87;71.31
43503;BME280;29098;48.184;16.298;2022-07-29T00:04:37;99229.38;;;19.91;71.98
43503;BME280;29098;48.184;16.298;2022-07-29T00:07:04;99237.97;;;19.93;71.92
43503;BME280;29098;48.184;16.298;2022-07-29T00:09:30;99231.75;;;19.70;72.28
43503;BME280;29098;48.184;16.298;2022-07-29T00:11:59;99231.38;;;19.61;72.15
43503;BME280;29098;48.184;16.298;2022-07-29T00:14:25;99243.81;;;19.73;72.79
43503;BME280;29098;48.184;16.298;2022-07-29T00:16:51;99231.59;;;19.77;71.92
43503;BME280;29098;48.184;16.298;2022-07-29T00:19:17;99236.88;;;19.71;72.01
43503;BME280;29098;48.184;16.298;2022-07-29T00:21:42;99230.22;;;19.57;72.38
43503;BME280;29098;48.184;16.298;2022-07-29T00:24:08;99230.72;;;19.54;73.69
43503;BME280;29098;48.184;16.298;2022-07-29T00:26:34;99238.97;;;19.52;73.63
43503;BME280;29098;48.184;16.298;2022-07-29T00:29:00;99221.66;;;19.55;73.12
43503;BME280;29098;48.184;16.298;2022-07-29T00:31:26;99228.47;;;19.46;73.69
43503;BME280;29098;48.184;16.298;2022-07-29T00:33:53;99226.34;;;19.48;73.68
43503;BME280;29098;48.184;16.298;2022-07-29T00:36:18;99220.19;;;19.47;73.19
43503;BME280;29098;48.184;16.298;2022-07-29T00:38:49;99224.22;;;19.50;73.96
43503;BME280;29098;48.184;16.298;2022-07-29T00:41:15;99231.69;;;19.48;73.63
43503;BME280;29098;48.184;16.298;2022-07-29T00:43:41;99229.91;;;19.36;73.35
43503;BME280;29098;48.184;16.298;2022-07-29T00:46:16;99212.09;;;19.42;74.00
43503;BME280;29098;48.184;16.298;2022-07-29T00:48:41;99212.66;;;19.27;74.24
43503;BME280;29098;48.184;16.298;2022-07-29T00:51:09;99222.78;;;19.25;73.71
43503;BME280;29098;48.184;16.298;2022-07-29T00:53:37;99215.31;;;19.27;73.60
43503;BME280;29098;48.184;16.298;2022-07-29T00:56:15;99209.81;;;19.16;74.83
43503;BME280;29098;48.184;16.298;2022-07-29T00:58:48;99217.44;;;19.25;75.05
43503;BME280;29098;48.184;16.298;2022-07-29T01:01:33;99217.75;;;19.11;75.16
43503;BME280;29098;48.184;16.298;2022-07-29T01:04:02;99223.56;;;19.08;74.83
43503;BME280;29098;48.184;16.298;2022-07-29T01:06:31;99208.84;;;19.06;75.43
43503;BME280;29098;48.184;16.298;2022-07-29T01:09:18;99208.00;;;19.05;75.97
43503;BME280;29098;48.184;16.298;2022-07-29T01:11:48;99214.50;;;19.09;75.92
43503;BME280;29098;48.184;16.298;2022-07-29T01:14:18;99218.22;;;19.25;75.12
43503;BME280;29098;48.184;16.298;2022-07-29T01:22:19;99202.03;;;19.15;74.53
43503;BME280;29098;48.184;16.298;2022-07-29T01:30:42;99204.09;;;18.96;75.27
43503;BME280;29098;48.184;16.298;2022-07-29T01:33:22;99212.50;;;18.87;76.61
43503;BME280;29098;48.184;16.298;2022-07-29T01:36:31;99232.91;;;18.94;76.61
43503;BME280;29098;48.184;16.298;2022-07-29T01:39:25;99223.28;;;18.93;76.31
43503;BME280;29098;48.184;16.298;2022-07-29T01:42:12;99211.50;;;18.76;77.66
43503;BME280;29098;48.184;16.298;2022-07-29T01:44:56;99192.47;;;18.73;77.71
43503;BME280;29098;48.184;16.298;2022-07-29T01:47:52;99224.28;;;18.74;78.13
43503;BME280;29098;48.184;16.298;2022-07-29T01:50:26;99214.06;;;18.71;77.10
43503;BME280;29098;48.184;16.298;2022-07-29T01:52:58;99230.75;;;18.79;77.38
43503;BME280;29098;48.184;16.298;2022-07-29T01:55:38;99217.31;;;18.73;77.07
43503;BME280;29098;48.184;16.298;2022-07-29T01:58:05;99226.84;;;18.69;77.80
43503;BME280;29098;48.184;16.298;2022-07-29T02:00:34;99237.88;;;18.73;77.68
43503;BME280;29098;48.184;16.298;2022-07-29T02:03:09;99223.13;;;18.70;77.51
43503;BME280;29098;48.184;16.298;2022-07-29T02:05:40;99227.72;;;18.58;78.08
43503;BME280;29098;48.184;16.298;2022-07-29T02:08:09;99228.94;;;18.67;78.38
43503;BME280;29098;48.184;16.298;2022-07-29T02:10:40;99234.91;;;18.57;78.79
43503;BME280;29098;48.184;16.298;2022-07-29T02:13:11;99210.59;;;18.42;79.03
43503;BME280;29098;48.184;16.298;2022-07-29T02:15:41;99213.47;;;18.40;79.39
43503;BME280;29098;48.184;16.298;2022-07-29T02:18:14;99209.06;;;18.46;79.49
43503;BME280;29098;48.184;16.298;2022-07-29T02:20:48;99234.28;;;18.26;79.91
43503;BME280;29098;48.184;16.298;2022-07-29T02:23:18;99225.25;;;18.15;79.52
43503;BME280;29098;48.184;16.298;2022-07-29T02:25:49;99234.28;;;18.26;79.99
43503;BME280;29098;48.184;16.298;2022-07-29T02:28:22;99235.06;;;18.51;79.42
43503;BME280;29098;48.184;16.298;2022-07-29T02:31:01;99226.13;;;18.45;79.76
43503;BME280;29098;48.184;16.298;2022-07-29T02:33:30;99224.97;;;18.41;79.37
43503;BME280;29098;48.184;16.298;2022-07-29T02:35:58;99225.47;;;18.38;79.42
43503;BME280;29098;48.184;16.298;2022-07-29T02:38:27;99218.78;;;18.52;79.08
43503;BME280;29098;48.184;16.298;2022-07-29T02:44:11;99215.75;;;18.19;80.06
43503;BME280;29098;48.184;16.298;2022-07-29T02:46:58;99227.50;;;18.06;81.78
43503;BME280;29098;48.184;16.298;2022-07-29T02:49:57;99218.78;;;17.99;81.32
43503;BME280;29098;48.184;16.298;2022-07-29T02:52:39;99212.41;;;18.12;81.08
43503;BME280;29098;48.184;16.298;2022-07-29T02:55:49;99221.34;;;18.06;80.84
43503;BME280;29098;48.184;16.298;2022-07-29T02:58:13;99220.19;;;18.14;81.64
43503;BME280;29098;48.184;16.298;2022-07-29T03:00:44;99229.53;;;18.28;80.26
43503;BME280;29098;48.184;16.298;2022-07-29T03:03:15;99211.56;;;18.12;80.90
43503;BME280;29098;48.184;16.298;2022-07-29T03:05:47;99215.50;;;18.21;81.29
43503;BME280;29098;48.184;16.298;2022-07-29T03:08:14;99207.28;;;18.11;81.04
43503;BME280;29098;48.184;16.298;2022-07-29T03:10:44;99214.03;;;18.13;80.70
43503;BME280;29098;48.184;16.298;2022-07-29T03:13:18;99221.16;;;18.25;80.85
43503;BME280;29098;48.184;16.298;2022-07-29T03:15:48;99218.09;;;18.16;81.00
43503;BME280;29098;48.184;16.298;2022-07-29T03:18:16;99201.59;;;17.95;81.85
43503;BME280;29098;48.184;16.298;2022-07-29T03:20:43;99223.78;;;18.07;81.90
43503;BME280;29098;48.184;16.298;2022-07-29T03:23:11;99228.50;;;18.05;81.27
43503;BME280;29098;48.184;16.298;2022-07-29T03:25:37;99227.47;;;17.94;82.09
43503;BME280;29098;48.184;16.298;2022-07-29T03:28:04;99215.28;;;17.87;82.23
43503;BME280;29098;48.184;16.298;2022-07-29T03:30:30;99224.22;;;17.92;82.15
43503;BME280;29098;48.184;16.298;2022-07-29T03:32:56;99212.50;;;17.93;82.54
43503;BME280;29098;48.184;16.298;2022-07-29T03:35:24;99218.88;;;17.92;82.69
43503;BME280;29098;48.184;16.298;2022-07-29T03:37:50;99217.63;;;18.07;82.59
43503;BME280;29098;48.184;16.298;2022-07-29T03:40:23;99216.81;;;18.06;81.89
43503;BME280;29098;48.184;16.298;2022-07-29T03:42:54;99205.88;;;17.96;82.01
43503;BME280;29098;48.184;16.298;2022-07-29T03:45:21;99221.47;;;18.11;81.10
43503;BME280;29098;48.184;16.298;2022-07-29T03:47:50;99216.56;;;17.96;81.64
43503;BME280;29098;48.184;16.298;2022-07-29T03:50:18;99207.28;;;17.87;83.10
43503;BME280;29098;48.184;16.298;2022-07-29T03:53:07;99208.69;;;17.77;83.19
43503;BME280;29098;48.184;16.298;2022-07-29T03:56:39;99216.47;;;17.91;83.71
43503;BME280;29098;48.184;16.298;2022-07-29T04:00:09;99217.47;;;17.90;83.47
43503;BME280;29098;48.184;16.298;2022-07-29T04:03:42;99220.50;;;17.93;82.77
43503;BME280;29098;48.184;16.298;2022-07-29T04:06:58;99214.25;;;17.76;83.74
43503;BME280;29098;48.184;16.298;2022-07-29T04:10:04;99223.53;;;17.85;84.26
43503;BME280;29098;48.184;16.298;2022-07-29T04:13:10;99225.84;;;17.93;83.85
43503;BME280;29098;48.184;16.298;2022-07-29T04:16:00;99225.84;;;17.82;84.22
43503;BME280;29098;48.184;16.298;2022-07-29T04:18:37;99222.25;;;17.88;83.98
43503;BME280;29098;48.184;16.298;2022-07-29T04:21:28;99238.59;;;17.91;83.86
43503;BME280;29098;48.184;16.298;2022-07-29T04:23:55;99227.00;;;17.98;83.63
43503;BME280;29098;48.184;16.298;2022-07-29T04:26:21;99245.91;;;18.08;83.68
43503;BME280;29098;48.184;16.298;2022-07-29T04:28:46;99219.13;;;18.15;82.11
43503;BME280;29098;48.184;16.298;2022-07-29T04:31:12;99228.50;;;18.29;82.36
43503;BME280;29098;48.184;16.298;2022-07-29T04:33:39;99230.91;;;18.31;82.22
43503;BME280;29098;48.184;16.298;2022-07-29T04:36:19;99232.44;;;18.27;82.09
43503;BME280;29098;48.184;16.298;2022-07-29T04:39:07;99234.81;;;18.40;81.51
43503;BME280;29098;48.184;16.298;2022-07-29T04:41:39;99244.31;;;18.60;79.97
43503;BME280;29098;48.184;16.298;2022-07-29T04:44:17;99231.25;;;18.34;81.70
43503;BME280;29098;48.184;16.298;2022-07-29T04:46:51;99233.81;;;18.41;81.35
43503;BME280;29098;48.184;16.298;2022-07-29T04:49:25;99236.34;;;18.48;81.72
43503;BME280;29098;48.184;16.298;2022-07-29T04:52:13;99246.94;;;18.72;79.71
43503;BME280;29098;48.184;16.298;2022-07-29T04:55:21;99246.25;;;18.65;78.13
43503;BME280;29098;48.184;16.298;2022-07-29T04:58:13;99249.22;;;18.80;78.15
43503;BME280;29098;48.184;16.298;2022-07-29T05:00:53;99250.28;;;18.79;77.98
43503;BME280;29098;48.184;16.298;2022-07-29T05:04:02;99254.00;;;18.78;77.19
43503;BME280;29098;48.184;16.298;2022-07-29T05:06:39;99256.63;;;18.90;76.77
43503;BME280;29098;48.184;16.298;2022-07-29T05:09:44;99250.78;;;18.93;76.38
43503;BME280;29098;48.184;16.298;2022-07-29T05:12:32;99259.03;;;19.03;76.26
43503;BME280;29098;48.184;16.298;2022-07-29T05:15:26;99269.16;;;19.19;75.72
43503;BME280;29098;48.184;16.298;2022-07-29T05:18:29;99266.34;;;19.42;75.06
43503;BME280;29098;48.184;16.298;2022-07-29T05:21:16;99250.50;;;19.53;76.20
43503;BME280;29098;48.184;16.298;2022-07-29T05:24:01;99261.41;;;19.34;74.48
43503;BME280;29098;48.184;16.298;2022-07-29T05:26:28;99266.69;;;19.63;73.71
43503;BME280;29098;48.184;16.298;2022-07-29T05:29:17;99262.63;;;19.61;73.38
43503;BME280;29098;48.184;16.298;2022-07-29T05:31:44;99270.00;;;19.70;73.87
43503;BME280;29098;48.184;16.298;2022-07-29T05:34:49;99264.38;;;19.89;73.40
43503;BME280;29098;48.184;16.298;2022-07-29T05:37:31;99271.94;;;19.92;72.07
43503;BME280;29098;48.184;16.298;2022-07-29T05:40:18;99266.94;;;19.96;71.28
43503;BME280;29098;48.184;16.298;2022-07-29T05:43:27;99258.09;;;19.95;70.76
43503;BME280;29098;48.184;16.298;2022-07-29T05:46:25;99277.03;;;20.11;70.83
43503;BME280;29098;48.184;16.298;2022-07-29T05:48:51;99263.22;;;20.19;70.27
43503;BME280;29098;48.184;16.298;2022-07-29T05:51:40;99277.13;;;20.38;70.09
43503;BME280;29098;48.184;16.298;2022-07-29T05:54:36;99283.97;;;20.51;68.46
43503;BME280;29098;48.184;16.298;2022-07-29T05:57:02;99286.16;;;20.55;68.11
43503;BME280;29098;48.184;16.298;2022-07-29T05:59:37;99273.94;;;20.64;67.64
43503;BME280;29098;48.184;16.298;2022-07-29T06:02:28;99274.66;;;20.81;67.16
43503;BME280;29098;48.184;16.298;2022-07-29T06:05:07;99276.63;;;20.86;66.51
43503;BME280;29098;48.184;16.298;2022-07-29T06:07:56;99277.59;;;21.02;67.02
43503;BME280;29098;48.184;16.298;2022-07-29T06:10:24;99270.56;;;20.96;64.93
43503;BME280;29098;48.184;16.298;2022-07-29T06:12:53;99272.59;;;21.11;64.60
43503;BME280;29098;48.184;16.298;2022-07-29T06:15:59;99277.00;;;21.23;64.35
43503;BME280;29098;48.184;16.298;2022-07-29T06:18:54;99271.19;;;21.03;64.58
43503;BME280;29098;48.184;16.298;2022-07-29T06:21:48;99291.81;;;21.30;65.07
43503;BME280;29098;48.184;16.298;2022-07-29T06:24:15;99288.38;;;21.35;64.58
43503;BME280;29098;48.184;16.298;2022-07-29T06:26:45;99286.75;;;21.34;65.20
43503;BME280;29098;48.184;16.298;2022-07-29T06:29:53;99290.31;;;21.45;64.63
43503;BME280;29098;48.184;16.298;2022-07-29T06:32:40;99284.50;;;21.53;65.25
43503;BME280;29098;48.184;16.298;2022-07-29T06:35:13;99280.28;;;21.62;63.79
43503;BME280;29098;48.184;16.298;2022-07-29T06:38:28;99282.00;;;21.74;63.31
43503;BME280;29098;48.184;16.298;2022-07-29T06:41:04;99262.13;;;21.70;63.46
43503;BME280;29098;48.184;16.298;2022-07-29T06:43:40;99284.22;;;21.87;63.99
43503;BME280;29098;48.184;16.298;2022-07-29T06:46:12;99283.44;;;21.92;64.29
43503;BME280;29098;48.184;16.298;2022-07-29T06:49:06;99288.00;;;21.86;63.85
43503;BME280;29098;48.184;16.298;2022-07-29T06:51:52;99294.44;;;21.90;64.53
43503;BME280;29098;48.184;16.298;2022-07-29T06:54:35;99295.50;;;21.84;64.28
43503;BME280;29098;48.184;16.298;2022-07-29T06:57:35;99291.16;;;21.83;63.93
43503;BME280;29098;48.184;16.298;2022-07-29T07:00:21;99305.69;;;21.87;63.30
43503;BME280;29098;48.184;16.298;2022-07-29T07:03:07;99307.06;;;21.90;63.37
43503;BME280;29098;48.184;16.298;2022-07-29T07:05:58;99299.78;;;21.85;63.63
43503;BME280;29098;48.184;16.298;2022-07-29T07:08:40;99313.22;;;21.85;62.92
43503;BME280;29098;48.184;16.298;2022-07-29T07:11:31;99305.16;;;21.90;63.23
43503;BME280;29098;48.184;16.298;2022-07-29T07:14:25;99302.69;;;21.79;63.60
43503;BME280;29098;48.184;16.298;2022-07-29T07:17:21;99304.38;;;21.90;63.60
43503;BME280;29098;48.184;16.298;2022-07-29T07:20:31;99301.56;;;22.12;63.27
43503;BME280;29098;48.184;16.298;2022-07-29T07:23:38;99300.19;;;22.05;62.98
43503;BME280;29098;48.184;16.298;2022-07-29T07:26:34;99319.31;;;22.19;63.37
43503;BME280;29098;48.184;16.298;2022-07-29T07:29:41;99299.75;;;22.23;62.29
43503;BME280;29098;48.184;16.298;2022-07-29T07:32:49;99318.53;;;22.23;61.87
43503;BME280;29098;48.184;16.298;2022-07-29T07:35:42;99309.31;;;22.52;62.32
43503;BME280;29098;48.184;16.298;2022-07-29T07:38:47;99313.88;;;22.56;61.80
43503;BME280;29098;48.184;16.298;2022-07-29T07:41:43;99317.34;;;22.52;61.42
43503;BME280;29098;48.184;16.298;2022-07-29T07:44:30;99322.47;;;22.53;61.53
43503;BME280;29098;48.184;16.298;2022-07-29T07:47:42;99314.16;;;22.55;61.06
43503;BME280;29098;48.184;16.298;2022-07-29T07:50:28;99312.56;;;22.54;61.61
43503;BME280;29098;48.184;16.298;2022-07-29T07:53:15;99314.22;;;22.76;60.77
43503;BME280;29098;48.184;16.298;2022-07-29T07:55:46;99314.03;;;22.88;60.10
43503;BME280;29098;48.184;16.298;2022-07-29T07:58:13;99327.50;;;23.03;60.03
43503;BME280;29098;48.184;16.298;2022-07-29T08:00:49;99309.81;;;23.38;59.63
43503;BME280;29098;48.184;16.298;2022-07-29T08:03:43;99328.38;;;23.81;56.66
43503;BME280;29098;48.184;16.298;2022-07-29T08:06:44;99332.16;;;23.96;57.37
43503;BME280;29098;48.184;16.298;2022-07-29T08:09:54;99323.28;;;24.06;57.39
43503;BME280;29098;48.184;16.298;2022-07-29T08:13:20;99317.38;;;23.88;54.99
43503;BME280;29098;48.184;16.298;2022-07-29T08:16:31;99318.97;;;23.63;55.48
43503;BME280;29098;48.184;16.298;2022-07-29T08:19:41;99329.47;;;23.80;56.13
43503;BME280;29098;48.184;16.298;2022-07-29T08:22:35;99317.63;;;23.71;56.46
43503;BME280;29098;48.184;16.298;2022-07-29T08:25:29;99330.03;;;23.77;55.90
43503;BME280;29098;48.184;16.298;2022-07-29T08:28:16;99326.25;;;23.73;56.32
43503;BME280;29098;48.184;16.298;2022-07-29T08:31:21;99328.91;;;23.89;55.80
43503;BME280;29098;48.184;16.298;2022-07-29T08:34:08;99320.56;;;24.01;54.90
43503;BME280;29098;48.184;16.298;2022-07-29T08:37:01;99322.13;;;24.43;54.01
43503;BME280;29098;48.184;16.298;2022-07-29T08:39:49;99316.06;;;24.72;54.87
43503;BME280;29098;48.184;16.298;2022-07-29T08:43:15;99326.56;;;24.74;53.33
43503;BME280;29098;48.184;16.298;2022-07-29T08:45:52;99325.47;;;24.85;54.87
43503;BME280;29098;48.184;16.298;2022-07-29T08:49:08;99330.81;;;24.90;53.41
43503;BME280;29098;48.184;16.298;2022-07-29T08:51:39;99325.78;;;24.63;52.82
43503;BME280;29098;48.184;16.298;2022-07-29T08:55:04;99328.47;;;24.68;53.56
43503;BME280;29098;48.184;16.298;2022-07-29T08:57:51;99325.44;;;24.90;53.98
43503;BME280;29098;48.184;16.298;2022-07-29T09:00:45;99313.28;;;24.93;54.04
43503;BME280;29098;48.184;16.298;2022-07-29T09:04:07;99311.19;;;24.85;53.98
43503;BME280;29098;48.184;16.298;2022-07-29T09:06:52;99318.22;;;24.70;53.96
43503;BME280;29098;48.184;16.298;2022-07-29T09:09:37;99314.44;;;24.76;54.52
43503;BME280;29098;48.184;16.298;2022-07-29T09:12:07;99314.88;;;24.94;55.05
43503;BME280;29098;48.184;16.298;2022-07-29T09:14:45;99315.09;;;25.08;54.22
43503;BME280;29098;48.184;16.298;2022-07-29T09:17:32;99302.38;;;25.14;52.76
43503;BME280;29098;48.184;16.298;2022-07-29T09:20:19;99323.53;;;25.36;53.17
43503;BME280;29098;48.184;16.298;2022-07-29T09:26:32;99309.94;;;25.52;50.33
43503;BME280;29098;48.184;16.298;2022-07-29T09:29:14;99307.44;;;25.90;50.27
43503;BME280;29098;48.184;16.298;2022-07-29T09:32:19;99321.03;;;26.09;50.27
43503;BME280;29098;48.184;16.298;2022-07-29T09:35:21;99314.72;;;26.19;49.89
43503;BME280;29098;48.184;16.298;2022-07-29T09:38:15;99314.41;;;26.26;50.10
43503;BME280;29098;48.184;16.298;2022-07-29T09:41:05;99314.84;;;26.09;50.14
43503;BME280;29098;48.184;16.298;2022-07-29T09:43:57;99312.88;;;26.15;49.98
43503;BME280;29098;48.184;16.298;2022-07-29T09:47:08;99306.81;;;25.98;50.75
43503;BME280;29098;48.184;16.298;2022-07-29T09:50:01;99302.50;;;25.73;50.07
43503;BME280;29098;48.184;16.298;2022-07-29T09:52:44;99313.28;;;25.73;50.43
43503;BME280;29098;48.184;16.298;2022-07-29T09:55:18;99301.34;;;25.79;51.08
43503;BME280;29098;48.184;16.298;2022-07-29T09:58:19;99304.22;;;25.88;51.41
43503;BME280;29098;48.184;16.298;2022-07-29T10:00:49;99299.53;;;25.99;50.24
43503;BME280;29098;48.184;16.298;2022-07-29T10:03:17;99283.44;;;26.13;49.99
43503;BME280;29098;48.184;16.298;2022-07-29T10:06:10;99283.00;;;26.55;49.98
43503;BME280;29098;48.184;16.298;2022-07-29T10:09:38;99295.31;;;26.17;47.96
43503;BME280;29098;48.184;16.298;2022-07-29T10:12:59;99283.69;;;26.17;48.28
43503;BME280;29098;48.184;16.298;2022-07-29T10:16:09;99276.34;;;26.22;48.40
43503;BME280;29098;48.184;16.298;2022-07-29T10:18:39;99291.25;;;26.63;48.39
43503;BME280;29098;48.184;16.298;2022-07-29T10:21:41;99274.19;;;27.06;46.68
43503;BME280;29098;48.184;16.298;2022-07-29T10:25:07;99271.78;;;27.05;47.48
43503;BME280;29098;48.184;16.298;2022-07-29T10:28:12;99277.69;;;27.26;45.67
43503;BME280;29098;48.184;16.298;2022-07-29T10:31:26;99270.41;;;27.41;46.27
43503;BME280;29098;48.184;16.298;2022-07-29T10:34:13;99270.22;;;27.51;46.90
43503;BME280;29098;48.184;16.298;2022-07-29T10:43:37;99264.47;;;27.58;45.73
43503;BME280;29098;48.184;16.298;2022-07-29T10:46:38;99259.41;;;27.51;44.47
43503;BME280;29098;48.184;16.298;2022-07-29T10:49:56;99264.00;;;27.70;43.26
43503;BME280;29098;48.184;16.298;2022-07-29T10:53:09;99251.00;;;27.53;44.60
43503;BME280;29098;48.184;16.298;2022-07-29T10:55:51;99234.97;;;27.56;44.48
43503;BME280;29098;48.184;16.298;2022-07-29T10:58:18;99249.44;;;27.66;45.82
43503;BME280;29098;48.184;16.298;2022-07-29T11:01:29;99243.38;;;27.55;44.65
43503;BME280;29098;48.184;16.298;2022-07-29T11:11:37;99235.13;;;28.21;44.61
43503;BME280;29098;48.184;16.298;2022-07-29T11:13:53;99239.31;;;28.92;42.77
43503;BME280;29098;48.184;16.298;2022-07-29T11:17:00;99222.09;;;28.60;42.31
43503;BME280;29098;48.184;16.298;2022-07-29T11:23:28;99222.84;;;28.89;43.28
43503;BME280;29098;48.184;16.298;2022-07-29T11:26:36;99221.03;;;28.84;43.86
43503;BME280;29098;48.184;16.298;2022-07-29T11:29:27;99202.63;;;28.58;43.51
43503;BME280;29098;48.184;16.298;2022-07-29T11:32:17;99201.34;;;28.92;44.25
43503;BME280;29098;48.184;16.298;2022-07-29T11:35:27;99221.41;;;28.91;44.26
43503;BME280;29098;48.184;16.298;2022-07-29T11:38:31;99213.03;;;29.24;44.46
43503;BME280;29098;48.184;16.298;2022-07-29T11:41:27;99220.59;;;29.36;43.92
43503;BME280;29098;48.184;16.298;2022-07-29T11:44:15;99214.66;;;29.57;42.10
43503;BME280;29098;48.184;16.298;2022-07-29T11:47:06;99222.00;;;29.97;40.93
43503;BME280;29098;48.184;16.298;2022-07-29T11:49:44;99219.94;;;30.70;41.96
43503;BME280;29098;48.184;16.298;2022-07-29T11:53:02;99216.34;;;31.31;40.33
43503;BME280;29098;48.184;16.298;2022-07-29T11:55:54;99202.88;;;31.82;36.90
43503;BME280;29098;48.184;16.298;2022-07-29T11:58:44;99195.75;;;32.20;36.90
43503;BME280;29098;48.184;16.298;2022-07-29T12:01:54;99181.41;;;32.53;36.80
43503;BME280;29098;48.184;16.298;2022-07-29T12:05:09;99190.72;;;32.95;35.19
43503;BME280;29098;48.184;16.298;2022-07-29T12:07:40;99177.22;;;33.24;34.90
43503;BME280;29098;48.184;16.298;2022-07-29T12:10:30;99188.75;;;33.42;35.79
43503;BME280;29098;48.184;16.298;2022-07-29T12:13:25;99175.13;;;33.79;34.73
43503;BME280;29098;48.184;16.298;2022-07-29T12:16:17;99185.91;;;33.88;33.57
43503;BME280;29098;48.184;16.298;2022-07-29T12:19:26;99180.25;;;33.68;34.50
43503;BME280;29098;48.184;16.298;2022-07-29T12:22:24;99178.50;;;34.26;33.92
43503;BME280;29098;48.184;16.298;2022-07-29T12:25:13;99181.03;;;33.94;33.48
43503;BME280;29098;48.184;16.298;2022-07-29T12:28:23;99179.03;;;32.52;36.21
43503;BME280;29098;48.184;16.298;2022-07-29T12:31:13;99184.75;;;32.38;35.77
43503;BME280;29098;48.184;16.298;2022-07-29T12:33:56;99173.13;;;31.98;37.15
43503;BME280;29098;48.184;16.298;2022-07-29T12:36:43;99187.94;;;31.41;37.98
43503;BME280;29098;48.184;16.298;2022-07-29T12:39:32;99172.72;;;31.49;37.78
43503;BME280;29098;48.184;16.298;2022-07-29T12:42:23;99180.03;;;31.00;39.98
43503;BME280;29098;48.184;16.298;2022-07-29T12:45:11;99170.31;;;30.55;40.48
43503;BME280;29098;48.184;16.298;2022-07-29T12:48:39;99150.06;;;29.86;41.31
43503;BME280;29098;48.184;16.298;2022-07-29T12:51:10;99150.00;;;29.68;40.80
43503;BME280;29098;48.184;16.298;2022-07-29T12:54:23;99162.53;;;29.15;42.60
43503;BME280;29098;48.184;16.298;2022-07-29T12:56:59;99171.47;;;28.69;43.01
43503;BME280;29098;48.184;16.298;2022-07-29T13:00:09;99155.91;;;28.38;44.08
43503;BME280;29098;48.184;16.298;2022-07-29T13:03:00;99156.84;;;28.06;44.75
43503;BME280;29098;48.184;16.298;2022-07-29T13:06:23;99161.34;;;28.10;45.12
43503;BME280;29098;48.184;16.298;2022-07-29T13:09:20;99162.00;;;27.79;45.31
43503;BME280;29098;48.184;16.298;2022-07-29T13:12:21;99177.28;;;27.42;45.82
43503;BME280;29098;48.184;16.298;2022-07-29T13:14:49;99163.75;;;27.42;46.11
43503;BME280;29098;48.184;16.298;2022-07-29T13:17:32;99167.69;;;27.02;47.67
43503;BME280;29098;48.184;16.298;2022-07-29T13:20:31;99179.97;;;26.75;48.47
43503;BME280;29098;48.184;16.298;2022-07-29T13:23:21;99190.94;;;26.65;49.11
43503;BME280;29098;48.184;16.298;2022-07-29T13:26:09;99188.91;;;26.37;49.55
43503;BME280;29098;48.184;16.298;2022-07-29T13:28:56;99182.34;;;26.19;49.74
43503;BME280;29098;48.184;16.298;2022-07-29T13:32:08;99185.88;;;25.95;50.81
43503;BME280;29098;48.184;16.298;2022-07-29T13:35:16;99193.69;;;25.73;52.15
43503;BME280;29098;48.184;16.298;2022-07-29T13:38:21;99203.44;;;25.68;54.08
43503;BME280;29098;48.184;16.298;2022-07-29T13:40:51;99202.81;;;25.47;55.09
43503;BME280;29098;48.184;16.298;2022-07-29T13:44:12;99202.59;;;25.43;56.85
43503;BME280;29098;48.184;16.298;2022-07-29T13:47:11;99184.06;;;25.02;58.31
43503;BME280;29098;48.184;16.298;2022-07-29T13:50:23;99194.88;;;24.97;59.11
43503;BME280;29098;48.184;16.298;2022-07-29T13:53:02;99206.94;;;24.70;60.98
43503;BME280;29098;48.184;16.298;2022-07-29T13:55:53;99220.50;;;24.54;62.36
43503;BME280;29098;48.184;16.298;2022-07-29T13:58:33;99233.22;;;24.43;63.65
43503;BME280;29098;48.184;16.298;2022-07-29T14:01:04;99236.75;;;24.28;64.97
43503;BME280;29098;48.184;16.298;2022-07-29T14:04:12;99262.69;;;23.98;67.81
43503;BME280;29098;48.184;16.298;2022-07-29T14:07:16;99281.03;;;23.65;70.25
43503;BME280;29098;48.184;16.298;2022-07-29T14:09:52;99277.28;;;23.61;71.59
43503;BME280;29098;48.184;16.298;2022-07-29T14:13:10;99269.13;;;22.98;77.04
43503;BME280;29098;48.184;16.298;2022-07-29T14:16:04;99254.88;;;22.82;78.62
43503;BME280;29098;48.184;16.298;2022-07-29T14:18:55;99269.41;;;23.02;80.63
43503;BME280;29098;48.184;16.298;2022-07-29T14:21:42;99260.75;;;22.79;82.18
43503;BME280;29098;48.184;16.298;2022-07-29T14:24:28;99260.75;;;22.79;84.32
43503;BME280;29098;48.184;16.298;2022-07-29T14:27:18;99264.22;;;22.64;85.61
43503;BME280;29098;48.184;16.298;2022-07-29T14:29:46;99270.06;;;22.46;86.87
43503;BME280;29098;48.184;16.298;2022-07-29T14:33:00;99269.38;;;22.17;89.43
43503;BME280;29098;48.184;16.298;2022-07-29T14:36:13;99265.88;;;22.12;91.03
43503;BME280;29098;48.184;16.298;2022-07-29T14:39:03;99278.00;;;22.25;92.23
43503;BME280;29098;48.184;16.298;2022-07-29T14:41:49;99255.97;;;22.17;93.55
43503;BME280;29098;48.184;16.298;2022-07-29T14:44:39;99238.69;;;22.03;96.70
43503;BME280;29098;48.184;16.298;2022-07-29T14:47:29;99243.53;;;22.06;97.07
43503;BME280;29098;48.184;16.298;2022-07-29T14:50:27;99218.59;;;22.06;98.46
43503;BME280;29098;48.184;16.298;2022-07-29T14:53:01;99223.78;;;22.23;97.89
43503;BME280;29098;48.184;16.298;2022-07-29T14:55:38;99232.22;;;21.94;99.05
43503;BME280;29098;48.184;16.298;2022-07-29T14:58:32;99217.19;;;21.93;98.05
43503;BME280;29098;48.184;16.298;2022-07-29T15:01:42;99187.66;;;21.98;100.00
43503;BME280;29098;48.184;16.298;2022-07-29T15:04:17;99181.53;;;22.08;100.00
43503;BME280;29098;48.184;16.298;2022-07-29T15:07:05;99194.75;;;22.20;100.00
43503;BME280;29098;48.184;16.298;2022-07-29T15:09:51;99183.25;;;22.29;100.00